Komokwa — ZJL8536 — position and weather

sailwx.info

Track history (hours):
 
Tides and Currents Weather Stations Pressure Air Temp Water Temp Dewpoint Dewpoint Depression Visibility Wind Speed Wind Dir Waves Ship Positions

Komokwa

Last reported at 2014-Oct-29 13:08 UTC. Time now 2014-Nov-01 04:49 UTC.
Position S 33°05' E 152°01'.

Length 37 m; draft 2.3 m.

Type: Ship. MMSI: 378111827.

Date/timePositionNaut miles runAvg speedWind from/ knotsBaromVisibWave heightAir tempDewpointWater temp
2014-Oct-29 13:08S 33°05' E 152°01'611.1
2014-Oct-29 12:33S 33°00' E 152°06'1111.1
2014-Oct-29 11:33S 32°51' E 152°14'1111.1
2014-Oct-29 10:33S 32°42' E 152°22'1110.7
2014-Oct-29 09:33S 32°34' E 152°30'25810.3
2014-Oct-28 08:22S 28°23' E 153°42'1011.1
2014-Oct-28 07:29S 28°13' E 153°41'1111.4
2014-Oct-28 06:33S 28°03' E 153°38'1111.1
2014-Oct-28 05:33S 27°52' E 153°36'1110.6
2014-Oct-28 04:33S 27°42' E 153°37'1110.7
2014-Oct-28 03:30S 27°31' E 153°40'2210.9
2014-Oct-28 01:32S 27°09' E 153°40'1111.5
2014-Oct-28 00:33S 26°58' E 153°40'1110.8
2014-Oct-27 23:34S 26°47' E 153°39'10 9.8
2014-Oct-27 22:33S 26°37' E 153°41'  
Track history (hours):
 
Tides and Currents Weather Stations Pressure Air Temp Water Temp Dewpoint Dewpoint Depression Visibility Wind Speed Wind Dir Waves Ship Positions

Komokwa

Last reported at 2014-Oct-29 13:08 UTC. Time now 2014-Nov-01 04:49 UTC.
Position S 33°05' E 152°01'.

Length 37 m; draft 2.3 m.

Type: Ship. MMSI: 378111827.

Date/timePositionNaut miles runAvg speedWind from/ knotsBaromVisibWave heightAir tempDewpointWater temp
2014-Oct-29 13:08S 33°05' E 152°01'611.1
2014-Oct-29 12:33S 33°00' E 152°06'1111.1
2014-Oct-29 11:33S 32°51' E 152°14'1111.1
2014-Oct-29 10:33S 32°42' E 152°22'1110.7
2014-Oct-29 09:33S 32°34' E 152°30'25810.3
2014-Oct-28 08:22S 28°23' E 153°42'1011.1
2014-Oct-28 07:29S 28°13' E 153°41'1111.4
2014-Oct-28 06:33S 28°03' E 153°38'1111.1
2014-Oct-28 05:33S 27°52' E 153°36'1110.6
2014-Oct-28 04:33S 27°42' E 153°37'1110.7
2014-Oct-28 03:30S 27°31' E 153°40'2210.9
2014-Oct-28 01:32S 27°09' E 153°40'1111.5
2014-Oct-28 00:33S 26°58' E 153°40'1110.8
2014-Oct-27 23:34S 26°47' E 153°39'10 9.8
2014-Oct-27 22:33S 26°37' E 153°41'  

Dump ship's entire track history